Time,TemperatureF,DewpointF,PressureIn,WindDirection,WindDirectionDegrees,WindSpeedMPH,WindSpeedGustMPH,Humidity,HourlyPrecipIn,Conditions,Clouds,dailyrainin,SoftwareType,DateUTC
2013-02-07 00:04:00,48.7,45.0,30.08,West,276,0.0,0.0,88,0.00,,,0.00,weatherlink.com 1.10,2013-02-07 08:04:00,
2013-02-07 00:19:00,48.6,45.0,30.08,West,276,0.0,0.0,88,0.00,,,0.00,weatherlink.com 1.10,2013-02-07 08:19:00,
2013-02-07 00:34:00,48.5,46.0,30.08,West,276,0.0,0.0,89,0.00,,,0.00,weatherlink.com 1.10,2013-02-07 08:34:00,
2013-02-07 00:49:00,48.4,45.0,30.08,West,276,0.0,0.0,89,0.00,,,0.00,weatherlink.com 1.10,2013-02-07 08:49:00,
2013-02-07 01:04:00,47.7,44.0,30.08,West,276,0.0,0.0,88,0.00,,,0.00,weatherlink.com 1.10,2013-02-07 09:04:00,
2013-02-07 01:19:00,47.1,44.0,30.08,West,276,0.0,0.0,88,0.00,,,0.00,weatherlink.com 1.10,2013-02-07 09:19:00,
2013-02-07 01:34:00,46.8,44.0,30.08,West,276,0.0,0.0,89,0.00,,,0.00,weatherlink.com 1.10,2013-02-07 09:34:00,
2013-02-07 01:49:00,46.6,44.0,30.08,West,276,0.0,0.0,89,0.00,,,0.00,weatherlink.com 1.10,2013-02-07 09:49:00,
2013-02-07 02:04:00,46.6,44.0,30.07,West,276,0.0,0.0,89,0.00,,,0.00,weatherlink.com 1.10,2013-02-07 10:04:00,
2013-02-07 02:20:00,46.3,44.0,30.07,West,276,0.0,0.0,90,0.00,,,0.00,weatherlink.com 1.10,2013-02-07 10:20:00,
2013-02-07 02:34:00,46.4,43.0,30.07,West,276,0.0,0.0,89,0.00,,,0.00,weatherlink.com 1.10,2013-02-07 10:34:00,
2013-02-07 02:50:00,46.3,44.0,30.07,West,276,0.0,0.0,90,0.00,,,0.00,weatherlink.com 1.10,2013-02-07 10:50:00,
2013-02-07 03:05:00,45.9,43.0,30.07,West,276,0.0,0.0,90,0.00,,,0.00,weatherlink.com 1.10,2013-02-07 11:05:00,
2013-02-07 03:20:00,46.2,44.0,30.07,West,276,0.0,0.0,90,0.00,,,0.00,weatherlink.com 1.10,2013-02-07 11:20:00,
2013-02-07 03:34:00,45.8,43.0,30.07,West,276,0.0,0.0,90,0.00,,,0.00,weatherlink.com 1.10,2013-02-07 11:34:00,
2013-02-07 03:49:00,45.5,43.0,30.07,West,276,0.0,1.0,90,0.00,,,0.00,weatherlink.com 1.10,2013-02-07 11:49:00,
2013-02-07 04:05:00,45.4,43.0,30.07,West,276,0.0,0.0,90,0.00,,,0.00,weatherlink.com 1.10,2013-02-07 12:05:00,
2013-02-07 04:20:00,45.0,42.0,30.06,West,276,0.0,0.0,90,0.00,,,0.00,weatherlink.com 1.10,2013-02-07 12:20:00,
2013-02-07 04:35:00,44.9,42.0,30.07,West,276,0.0,0.0,90,0.00,,,0.00,weatherlink.com 1.10,2013-02-07 12:35:00,
2013-02-07 04:50:00,44.1,41.0,30.07,West,276,0.0,0.0,90,0.00,,,0.00,weatherlink.com 1.10,2013-02-07 12:50:00,
2013-02-07 05:05:00,44.4,42.0,30.07,West,276,0.0,0.0,90,0.00,,,0.00,weatherlink.com 1.10,2013-02-07 13:05:00,
2013-02-07 05:20:00,44.5,42.0,30.08,West,276,0.0,0.0,90,0.00,,,0.00,weatherlink.com 1.10,2013-02-07 13:20:00,
2013-02-07 05:35:00,44.6,42.0,30.08,West,276,0.0,1.0,91,0.00,,,0.00,weatherlink.com 1.10,2013-02-07 13:35:00,
2013-02-07 05:50:00,44.2,42.0,30.08,West,276,0.0,0.0,90,0.00,,,0.00,weatherlink.com 1.10,2013-02-07 13:50:00,
2013-02-07 06:05:00,44.4,42.0,30.08,West,276,0.0,0.0,91,0.00,,,0.00,weatherlink.com 1.10,2013-02-07 14:05:00,
2013-02-07 06:20:00,44.5,42.0,30.09,West,276,0.0,0.0,91,0.00,,,0.00,weatherlink.com 1.10,2013-02-07 14:20:00,
2013-02-07 06:35:00,44.1,41.0,30.08,West,276,0.0,0.0,90,0.00,,,0.00,weatherlink.com 1.10,2013-02-07 14:35:00,
2013-02-07 06:50:00,44.2,42.0,30.09,West,276,0.0,0.0,91,0.00,,,0.00,weatherlink.com 1.10,2013-02-07 14:50:00,
2013-02-07 07:05:00,43.8,41.0,30.09,West,276,0.0,0.0,90,0.00,,,0.00,weatherlink.com 1.10,2013-02-07 15:05:00,
2013-02-07 07:20:00,44.1,42.0,30.10,West,276,0.0,0.0,91,0.00,,,0.00,weatherlink.com 1.10,2013-02-07 15:20:00,
2013-02-07 07:35:00,45.1,43.0,30.10,West,276,0.0,0.0,91,0.00,,,0.00,weatherlink.com 1.10,2013-02-07 15:35:00,
2013-02-07 07:50:00,46.4,44.0,30.10,West,276,0.0,1.0,91,0.00,,,0.00,weatherlink.com 1.10,2013-02-07 15:50:00,
2013-02-07 08:05:00,48.2,46.0,30.10,West,276,0.0,0.0,92,0.00,,,0.00,weatherlink.com 1.10,2013-02-07 16:05:00,
2013-02-07 08:20:00,49.6,47.0,30.10,WNW,301,0.0,1.0,91,0.00,,,0.00,weatherlink.com 1.10,2013-02-07 16:20:00,
2013-02-07 08:35:00,51.3,48.0,30.11,NW,315,1.0,2.0,89,0.00,,,0.00,weatherlink.com 1.10,2013-02-07 16:35:00,
2013-02-07 08:50:00,52.9,49.0,30.11,NW,322,0.0,2.0,86,0.00,,,0.00,weatherlink.com 1.10,2013-02-07 16:50:00,
2013-02-07 09:05:00,54.5,49.0,30.11,NNW,346,0.0,1.0,83,0.00,,,0.00,weatherlink.com 1.10,2013-02-07 17:05:00,
2013-02-07 09:20:00,56.0,50.0,30.11,North,6,1.0,2.0,80,0.00,,,0.00,weatherlink.com 1.10,2013-02-07 17:20:00,
2013-02-07 09:35:00,57.0,50.0,30.10,NNW,343,1.0,3.0,77,0.00,,,0.00,weatherlink.com 1.10,2013-02-07 17:35:00,
2013-02-07 09:50:00,58.3,51.0,30.10,NW,308,1.0,3.0,76,0.00,,,0.00,weatherlink.com 1.10,2013-02-07 17:50:00,
2013-02-07 10:05:00,59.6,51.0,30.10,West,272,1.0,2.0,73,0.00,,,0.00,weatherlink.com 1.10,2013-02-07 18:05:00,
2013-02-07 10:21:00,60.2,51.0,30.10,SW,233,3.0,5.0,71,0.00,,,0.00,weatherlink.com 1.10,2013-02-07 18:21:00,
2013-02-07 10:36:00,60.5,50.0,30.09,WSW,238,0.0,2.0,69,0.00,,,0.00,weatherlink.com 1.10,2013-02-07 18:36:00,
2013-02-07 10:51:00,61.1,50.0,30.10,SW,235,2.0,4.0,67,0.00,,,0.00,weatherlink.com 1.10,2013-02-07 18:51:00,
2013-02-07 11:05:00,61.7,50.0,30.09,West,266,0.0,2.0,66,0.00,,,0.00,weatherlink.com 1.10,2013-02-07 19:05:00,
2013-02-07 11:21:00,61.4,49.0,30.09,WSW,240,2.0,6.0,65,0.00,,,0.00,weatherlink.com 1.10,2013-02-07 19:21:00,
2013-02-07 11:36:00,61.9,50.0,30.08,SSW,212,2.0,7.0,65,0.00,,,0.00,weatherlink.com 1.10,2013-02-07 19:36:00,
2013-02-07 11:51:00,62.2,50.0,30.08,SW,236,5.0,7.0,64,0.00,,,0.00,weatherlink.com 1.10,2013-02-07 19:51:00,
2013-02-07 12:06:00,63.1,50.0,30.07,SSW,213,5.0,9.0,62,0.00,,,0.00,weatherlink.com 1.10,2013-02-07 20:06:00,
2013-02-07 12:21:00,63.3,50.0,30.06,SSE,150,3.0,8.0,63,0.00,,,0.00,weatherlink.com 1.10,2013-02-07 20:21:00,
2013-02-07 12:36:00,63.6,50.0,30.06,SW,233,5.0,9.0,61,0.00,,,0.00,weatherlink.com 1.10,2013-02-07 20:36:00,
2013-02-07 12:51:00,63.2,49.0,30.05,SW,228,4.0,11.0,61,0.00,,,0.00,weatherlink.com 1.10,2013-02-07 20:51:00,
2013-02-07 13:06:00,63.5,50.0,30.04,SSW,207,7.0,8.0,62,0.00,,,0.00,weatherlink.com 1.10,2013-02-07 21:06:00,
2013-02-07 13:21:00,63.1,50.0,30.03,SE,141,4.0,6.0,63,0.00,,,0.00,weatherlink.com 1.10,2013-02-07 21:21:00,
2013-02-07 13:36:00,63.1,50.0,30.02,SW,233,1.0,7.0,62,0.00,,,0.00,weatherlink.com 1.10,2013-02-07 21:36:00,
2013-02-07 13:51:00,63.3,49.0,30.02,SSW,201,4.0,7.0,61,0.00,,,0.00,weatherlink.com 1.10,2013-02-07 21:51:00,
2013-02-07 14:06:00,63.1,49.0,30.01,South,181,3.0,7.0,61,0.00,,,0.00,weatherlink.com 1.10,2013-02-07 22:06:00,
2013-02-07 14:21:00,62.7,50.0,30.01,WSW,242,2.0,9.0,63,0.00,,,0.00,weatherlink.com 1.10,2013-02-07 22:21:00,
2013-02-07 14:36:00,63.0,50.0,30.00,South,188,3.0,8.0,63,0.00,,,0.00,weatherlink.com 1.10,2013-02-07 22:36:00,
2013-02-07 14:51:00,61.6,49.0,30.00,SE,146,4.0,8.0,64,0.00,,,0.00,weatherlink.com 1.10,2013-02-07 22:51:00,
2013-02-07 15:06:00,61.3,49.0,30.00,WSW,242,1.0,6.0,65,0.00,,,0.00,weatherlink.com 1.10,2013-02-07 23:06:00,
2013-02-07 15:21:00,60.8,49.0,30.00,WSW,243,4.0,8.0,65,0.00,,,0.00,weatherlink.com 1.10,2013-02-07 23:21:00,
2013-02-07 15:36:00,60.2,48.0,30.00,SW,233,5.0,10.0,65,0.00,,,0.00,weatherlink.com 1.10,2013-02-07 23:36:00,
2013-02-07 15:51:00,59.8,48.0,30.00,SW,235,2.0,8.0,65,0.00,,,0.00,weatherlink.com 1.10,2013-02-07 23:51:00,
2013-02-07 16:06:00,59.7,48.0,30.00,WSW,251,4.0,7.0,65,0.00,,,0.00,weatherlink.com 1.10,2013-02-08 00:06:00,
2013-02-07 16:21:00,59.7,48.0,30.00,SW,228,2.0,9.0,66,0.00,,,0.00,weatherlink.com 1.10,2013-02-08 00:21:00,
2013-02-07 16:36:00,59.2,47.0,29.99,SW,235,2.0,5.0,65,0.00,,,0.00,weatherlink.com 1.10,2013-02-08 00:36:00,
2013-02-07 16:51:00,59.0,47.0,30.00,WSW,248,1.0,5.0,64,0.00,,,0.00,weatherlink.com 1.10,2013-02-08 00:51:00,
2013-02-07 17:06:00,58.6,47.0,30.00,WSW,245,2.0,7.0,65,0.00,,,0.00,weatherlink.com 1.10,2013-02-08 01:06:00,
2013-02-07 17:21:00,58.3,47.0,29.99,West,270,1.0,7.0,66,0.00,,,0.00,weatherlink.com 1.10,2013-02-08 01:21:00,
2013-02-07 17:36:00,58.0,46.0,30.00,WSW,243,3.0,6.0,64,0.00,,,0.00,weatherlink.com 1.10,2013-02-08 01:36:00,
2013-02-07 17:51:00,57.8,46.0,29.99,WSW,253,1.0,4.0,65,0.00,,,0.00,weatherlink.com 1.10,2013-02-08 01:51:00,
2013-02-07 18:06:00,57.7,46.0,29.99,SW,228,2.0,6.0,65,0.00,,,0.00,weatherlink.com 1.10,2013-02-08 02:06:00,
2013-02-07 18:21:00,57.5,45.0,30.00,SW,231,3.0,6.0,63,0.00,,,0.00,weatherlink.com 1.10,2013-02-08 02:21:00,
2013-02-07 18:36:00,57.2,45.0,29.99,SW,224,3.0,4.0,64,0.00,,,0.00,weatherlink.com 1.10,2013-02-08 02:36:00,
2013-02-07 18:51:00,56.6,44.0,29.99,WSW,244,1.0,4.0,64,0.00,,,0.00,weatherlink.com 1.10,2013-02-08 02:51:00,
2013-02-07 19:06:00,56.0,45.0,29.98,WSW,241,0.0,4.0,66,0.00,,,0.00,weatherlink.com 1.10,2013-02-08 03:06:00,
2013-02-07 19:21:00,55.5,45.0,29.98,WSW,243,0.0,1.0,67,0.00,,,0.00,weatherlink.com 1.10,2013-02-08 03:21:00,
2013-02-07 19:36:00,55.1,45.0,29.98,SSW,193,1.0,2.0,68,0.00,,,0.00,weatherlink.com 1.10,2013-02-08 03:36:00,
2013-02-07 19:51:00,55.3,46.0,29.98,WSW,252,1.0,2.0,70,0.00,,,0.00,weatherlink.com 1.10,2013-02-08 03:51:00,
2013-02-07 20:07:00,56.1,48.0,29.98,SW,233,3.0,5.0,73,0.00,,,0.00,weatherlink.com 1.10,2013-02-08 04:07:00,
2013-02-07 20:21:00,56.3,48.0,29.98,WSW,248,1.0,4.0,73,0.00,,,0.00,weatherlink.com 1.10,2013-02-08 04:21:00,
2013-02-07 20:36:00,56.5,46.0,29.98,West,279,3.0,6.0,68,0.00,,,0.00,weatherlink.com 1.10,2013-02-08 04:36:00,
2013-02-07 20:51:00,56.8,45.0,29.98,West,259,2.0,7.0,64,0.00,,,0.00,weatherlink.com 1.10,2013-02-08 04:51:00,
2013-02-07 21:06:00,56.9,43.0,29.98,West,262,2.0,5.0,61,0.00,,,0.00,weatherlink.com 1.10,2013-02-08 05:06:00,
2013-02-07 21:22:00,56.8,43.0,29.97,West,269,1.0,3.0,61,0.00,,,0.00,weatherlink.com 1.10,2013-02-08 05:22:00,
2013-02-07 21:37:00,55.8,43.0,29.98,West,269,0.0,0.0,63,0.00,,,0.00,weatherlink.com 1.10,2013-02-08 05:37:00,
2013-02-07 21:51:00,54.9,44.0,29.98,West,270,0.0,0.0,68,0.00,,,0.00,weatherlink.com 1.10,2013-02-08 05:51:00,
2013-02-07 22:06:00,54.5,44.0,29.98,West,269,0.0,1.0,68,0.00,,,0.00,weatherlink.com 1.10,2013-02-08 06:06:00,
2013-02-07 22:22:00,54.5,44.0,29.98,West,269,0.0,0.0,69,0.00,,,0.00,weatherlink.com 1.10,2013-02-08 06:22:00,
2013-02-07 22:36:00,54.7,44.0,29.98,West,269,0.0,0.0,68,0.00,,,0.00,weatherlink.com 1.10,2013-02-08 06:36:00,
2013-02-07 22:51:00,55.0,45.0,29.97,West,269,0.0,1.0,68,0.00,,,0.00,weatherlink.com 1.10,2013-02-08 06:51:00,
2013-02-07 23:07:00,55.9,47.0,29.97,SSW,212,3.0,3.0,72,0.00,,,0.00,weatherlink.com 1.10,2013-02-08 07:07:00,
2013-02-07 23:21:00,56.2,48.0,29.97,West,259,1.0,4.0,74,0.00,,,0.00,weatherlink.com 1.10,2013-02-08 07:21:00,
2013-02-07 23:36:00,56.3,48.0,29.97,WSW,257,7.0,11.0,74,0.00,,,0.00,weatherlink.com 1.10,2013-02-08 07:36:00,
2013-02-07 23:51:00,55.9,48.0,29.96,WSW,250,8.0,11.0,74,0.00,,,0.00,weatherlink.com 1.10,2013-02-08 07:51:00,